sensor_id;sensor_type;location;lat;lon;timestamp;temperature;humidity
2226;DHT22;1119;48.288;8.726;2023-03-14T00:00:28;9.30;99.90
2226;DHT22;1119;48.288;8.726;2023-03-14T00:03:15;9.30;99.90
2226;DHT22;1119;48.288;8.726;2023-03-14T00:06:05;9.30;99.90
2226;DHT22;1119;48.288;8.726;2023-03-14T00:08:54;9.30;99.90
2226;DHT22;1119;48.288;8.726;2023-03-14T00:11:42;9.30;99.90
2226;DHT22;1119;48.288;8.726;2023-03-14T00:14:32;9.40;99.90
2226;DHT22;1119;48.288;8.726;2023-03-14T00:17:20;9.40;99.90
2226;DHT22;1119;48.288;8.726;2023-03-14T00:20:10;9.40;99.90
2226;DHT22;1119;48.288;8.726;2023-03-14T00:22:58;9.40;99.90
2226;DHT22;1119;48.288;8.726;2023-03-14T00:25:46;9.40;99.90
2226;DHT22;1119;48.288;8.726;2023-03-14T00:28:34;9.40;99.90
2226;DHT22;1119;48.288;8.726;2023-03-14T00:31:23;9.30;99.90
2226;DHT22;1119;48.288;8.726;2023-03-14T00:34:11;9.30;99.90
2226;DHT22;1119;48.288;8.726;2023-03-14T00:36:59;9.20;99.90
2226;DHT22;1119;48.288;8.726;2023-03-14T00:39:47;9.20;99.90
2226;DHT22;1119;48.288;8.726;2023-03-14T00:42:35;9.10;99.90
2226;DHT22;1119;48.288;8.726;2023-03-14T00:45:22;9.10;99.90
2226;DHT22;1119;48.288;8.726;2023-03-14T00:48:11;9.20;99.90
2226;DHT22;1119;48.288;8.726;2023-03-14T00:50:59;9.20;99.90
2226;DHT22;1119;48.288;8.726;2023-03-14T00:53:47;9.20;99.90
2226;DHT22;1119;48.288;8.726;2023-03-14T00:56:34;9.20;99.90
2226;DHT22;1119;48.288;8.726;2023-03-14T00:59:22;9.20;99.90
2226;DHT22;1119;48.288;8.726;2023-03-14T01:02:10;9.30;99.90
2226;DHT22;1119;48.288;8.726;2023-03-14T01:04:59;9.30;99.90
2226;DHT22;1119;48.288;8.726;2023-03-14T01:07:46;9.30;99.90
2226;DHT22;1119;48.288;8.726;2023-03-14T01:10:34;9.30;99.90
2226;DHT22;1119;48.288;8.726;2023-03-14T01:13:25;9.30;99.90
2226;DHT22;1119;48.288;8.726;2023-03-14T01:16:13;9.20;99.90
2226;DHT22;1119;48.288;8.726;2023-03-14T01:19:01;9.10;99.90
2226;DHT22;1119;48.288;8.726;2023-03-14T01:21:50;9.00;99.90
2226;DHT22;1119;48.288;8.726;2023-03-14T01:24:38;9.00;99.90
2226;DHT22;1119;48.288;8.726;2023-03-14T01:27:26;9.00;99.90
2226;DHT22;1119;48.288;8.726;2023-03-14T01:30:14;9.00;99.90
2226;DHT22;1119;48.288;8.726;2023-03-14T01:33:02;8.90;99.90
2226;DHT22;1119;48.288;8.726;2023-03-14T01:35:50;8.90;99.90
2226;DHT22;1119;48.288;8.726;2023-03-14T01:38:39;8.90;99.90
2226;DHT22;1119;48.288;8.726;2023-03-14T01:41:30;8.80;99.90
2226;DHT22;1119;48.288;8.726;2023-03-14T01:44:19;8.80;99.90
2226;DHT22;1119;48.288;8.726;2023-03-14T01:47:06;8.80;99.90
2226;DHT22;1119;48.288;8.726;2023-03-14T01:49:57;8.80;99.90
2226;DHT22;1119;48.288;8.726;2023-03-14T01:52:49;8.80;99.90
2226;DHT22;1119;48.288;8.726;2023-03-14T01:55:40;8.80;99.90
2226;DHT22;1119;48.288;8.726;2023-03-14T01:58:29;8.80;99.90
2226;DHT22;1119;48.288;8.726;2023-03-14T02:01:21;8.80;99.90
2226;DHT22;1119;48.288;8.726;2023-03-14T02:04:13;8.80;99.90
2226;DHT22;1119;48.288;8.726;2023-03-14T02:07:11;8.70;99.90
2226;DHT22;1119;48.288;8.726;2023-03-14T02:10:07;8.70;99.90
2226;DHT22;1119;48.288;8.726;2023-03-14T02:12:59;8.70;99.90
2226;DHT22;1119;48.288;8.726;2023-03-14T02:16:12;8.70;99.90
2226;DHT22;1119;48.288;8.726;2023-03-14T02:19:14;8.70;99.90
2226;DHT22;1119;48.288;8.726;2023-03-14T02:22:21;8.70;99.90
2226;DHT22;1119;48.288;8.726;2023-03-14T02:25:37;8.70;99.90
2226;DHT22;1119;48.288;8.726;2023-03-14T02:28:28;8.70;99.90
2226;DHT22;1119;48.288;8.726;2023-03-14T02:31:20;8.70;99.90
2226;DHT22;1119;48.288;8.726;2023-03-14T02:34:09;8.70;99.90
2226;DHT22;1119;48.288;8.726;2023-03-14T02:36:58;8.70;99.90
2226;DHT22;1119;48.288;8.726;2023-03-14T02:39:46;8.70;99.90
2226;DHT22;1119;48.288;8.726;2023-03-14T02:42:36;8.70;99.90
2226;DHT22;1119;48.288;8.726;2023-03-14T02:45:41;8.70;99.90
2226;DHT22;1119;48.288;8.726;2023-03-14T02:48:35;8.70;99.90
2226;DHT22;1119;48.288;8.726;2023-03-14T02:51:26;8.70;99.90
2226;DHT22;1119;48.288;8.726;2023-03-14T02:54:15;8.70;99.90
2226;DHT22;1119;48.288;8.726;2023-03-14T02:57:04;8.60;99.90
2226;DHT22;1119;48.288;8.726;2023-03-14T02:59:51;8.60;99.90
2226;DHT22;1119;48.288;8.726;2023-03-14T03:02:41;8.60;99.90
2226;DHT22;1119;48.288;8.726;2023-03-14T03:05:29;8.60;99.90
2226;DHT22;1119;48.288;8.726;2023-03-14T03:08:17;8.50;99.90
2226;DHT22;1119;48.288;8.726;2023-03-14T03:11:05;8.50;99.90
2226;DHT22;1119;48.288;8.726;2023-03-14T03:13:54;8.50;99.90
2226;DHT22;1119;48.288;8.726;2023-03-14T03:16:42;8.50;99.90
2226;DHT22;1119;48.288;8.726;2023-03-14T03:19:31;8.40;99.90
2226;DHT22;1119;48.288;8.726;2023-03-14T03:22:19;8.40;99.90
2226;DHT22;1119;48.288;8.726;2023-03-14T03:25:08;8.40;99.90
2226;DHT22;1119;48.288;8.726;2023-03-14T03:27:57;8.30;99.90
2226;DHT22;1119;48.288;8.726;2023-03-14T03:30:45;8.30;99.90
2226;DHT22;1119;48.288;8.726;2023-03-14T03:33:33;8.30;99.90
2226;DHT22;1119;48.288;8.726;2023-03-14T03:36:23;8.20;99.90
2226;DHT22;1119;48.288;8.726;2023-03-14T03:39:11;8.30;99.90
2226;DHT22;1119;48.288;8.726;2023-03-14T03:41:58;8.20;99.90
2226;DHT22;1119;48.288;8.726;2023-03-14T03:44:46;8.20;99.90
2226;DHT22;1119;48.288;8.726;2023-03-14T03:47:35;8.20;99.90
2226;DHT22;1119;48.288;8.726;2023-03-14T03:50:23;8.20;99.90
2226;DHT22;1119;48.288;8.726;2023-03-14T03:53:12;8.20;99.90
2226;DHT22;1119;48.288;8.726;2023-03-14T03:56:00;8.20;99.90
2226;DHT22;1119;48.288;8.726;2023-03-14T03:58:48;8.10;99.90
2226;DHT22;1119;48.288;8.726;2023-03-14T04:01:36;8.10;99.90
2226;DHT22;1119;48.288;8.726;2023-03-14T04:04:24;8.10;99.90
2226;DHT22;1119;48.288;8.726;2023-03-14T04:07:12;8.20;99.90
2226;DHT22;1119;48.288;8.726;2023-03-14T04:10:03;8.20;99.90
2226;DHT22;1119;48.288;8.726;2023-03-14T04:13:01;8.10;99.90
2226;DHT22;1119;48.288;8.726;2023-03-14T04:15:51;8.10;99.90
2226;DHT22;1119;48.288;8.726;2023-03-14T04:18:44;8.10;99.90
2226;DHT22;1119;48.288;8.726;2023-03-14T04:21:31;8.00;99.90
2226;DHT22;1119;48.288;8.726;2023-03-14T04:24:19;8.00;99.90
2226;DHT22;1119;48.288;8.726;2023-03-14T04:27:10;8.00;99.90
2226;DHT22;1119;48.288;8.726;2023-03-14T04:29:58;8.00;99.90
2226;DHT22;1119;48.288;8.726;2023-03-14T04:33:04;8.00;99.90
2226;DHT22;1119;48.288;8.726;2023-03-14T04:35:56;8.00;99.90
2226;DHT22;1119;48.288;8.726;2023-03-14T04:38:44;8.00;99.90
2226;DHT22;1119;48.288;8.726;2023-03-14T04:41:35;8.10;99.90
2226;DHT22;1119;48.288;8.726;2023-03-14T04:44:25;8.00;99.90
2226;DHT22;1119;48.288;8.726;2023-03-14T04:47:14;8.00;99.90
2226;DHT22;1119;48.288;8.726;2023-03-14T04:50:03;8.00;99.90
2226;DHT22;1119;48.288;8.726;2023-03-14T04:52:51;8.10;99.90
2226;DHT22;1119;48.288;8.726;2023-03-14T04:55:39;8.10;99.90
2226;DHT22;1119;48.288;8.726;2023-03-14T04:58:27;8.10;99.90
2226;DHT22;1119;48.288;8.726;2023-03-14T05:04:26;8.20;99.90
2226;DHT22;1119;48.288;8.726;2023-03-14T05:07:35;8.20;99.90
2226;DHT22;1119;48.288;8.726;2023-03-14T05:10:35;8.20;99.90
2226;DHT22;1119;48.288;8.726;2023-03-14T05:13:37;8.20;99.90
2226;DHT22;1119;48.288;8.726;2023-03-14T05:16:47;8.20;99.90
2226;DHT22;1119;48.288;8.726;2023-03-14T05:19:45;8.10;99.90
2226;DHT22;1119;48.288;8.726;2023-03-14T05:22:53;8.10;99.90
2226;DHT22;1119;48.288;8.726;2023-03-14T05:25:59;8.00;99.90
2226;DHT22;1119;48.288;8.726;2023-03-14T05:29:02;8.00;99.90
2226;DHT22;1119;48.288;8.726;2023-03-14T05:32:10;8.00;99.90
2226;DHT22;1119;48.288;8.726;2023-03-14T05:35:17;8.00;99.90
2226;DHT22;1119;48.288;8.726;2023-03-14T05:38:15;8.00;99.90
2226;DHT22;1119;48.288;8.726;2023-03-14T05:41:33;8.00;99.90
2226;DHT22;1119;48.288;8.726;2023-03-14T05:44:40;8.00;99.90
2226;DHT22;1119;48.288;8.726;2023-03-14T05:47:34;8.10;99.90
2226;DHT22;1119;48.288;8.726;2023-03-14T05:50:43;8.10;99.90
2226;DHT22;1119;48.288;8.726;2023-03-14T05:53:46;8.10;99.90
2226;DHT22;1119;48.288;8.726;2023-03-14T05:56:52;8.20;99.90
2226;DHT22;1119;48.288;8.726;2023-03-14T05:59:55;8.20;99.90
2226;DHT22;1119;48.288;8.726;2023-03-14T06:03:10;8.20;99.90
2226;DHT22;1119;48.288;8.726;2023-03-14T06:06:04;8.20;99.90
2226;DHT22;1119;48.288;8.726;2023-03-14T06:08:52;8.20;99.90
2226;DHT22;1119;48.288;8.726;2023-03-14T06:11:40;8.20;99.90
2226;DHT22;1119;48.288;8.726;2023-03-14T06:14:31;8.20;99.90
2226;DHT22;1119;48.288;8.726;2023-03-14T06:17:19;8.20;99.90
2226;DHT22;1119;48.288;8.726;2023-03-14T06:20:17;8.30;99.90
2226;DHT22;1119;48.288;8.726;2023-03-14T06:23:06;8.30;99.90
2226;DHT22;1119;48.288;8.726;2023-03-14T06:25:54;8.30;99.90
2226;DHT22;1119;48.288;8.726;2023-03-14T06:28:43;8.30;99.90
2226;DHT22;1119;48.288;8.726;2023-03-14T06:31:31;8.30;99.90
2226;DHT22;1119;48.288;8.726;2023-03-14T06:34:23;8.30;99.90
2226;DHT22;1119;48.288;8.726;2023-03-14T06:37:10;8.30;99.90
2226;DHT22;1119;48.288;8.726;2023-03-14T06:40:00;8.20;99.90
2226;DHT22;1119;48.288;8.726;2023-03-14T06:43:26;8.20;99.90
2226;DHT22;1119;48.288;8.726;2023-03-14T06:46:14;8.30;99.90
2226;DHT22;1119;48.288;8.726;2023-03-14T06:49:03;8.30;99.90
2226;DHT22;1119;48.288;8.726;2023-03-14T06:51:52;8.30;99.90
2226;DHT22;1119;48.288;8.726;2023-03-14T06:54:40;8.40;99.90
2226;DHT22;1119;48.288;8.726;2023-03-14T06:57:29;8.60;99.90
2226;DHT22;1119;48.288;8.726;2023-03-14T07:00:18;8.70;99.90
2226;DHT22;1119;48.288;8.726;2023-03-14T07:03:07;8.80;99.90
2226;DHT22;1119;48.288;8.726;2023-03-14T07:05:58;9.30;99.90
2226;DHT22;1119;48.288;8.726;2023-03-14T07:08:46;10.60;99.90
2226;DHT22;1119;48.288;8.726;2023-03-14T07:11:36;11.30;99.90
2226;DHT22;1119;48.288;8.726;2023-03-14T07:14:25;11.90;99.60
2226;DHT22;1119;48.288;8.726;2023-03-14T07:17:14;13.20;97.40
2226;DHT22;1119;48.288;8.726;2023-03-14T07:20:02;14.70;93.70
2226;DHT22;1119;48.288;8.726;2023-03-14T07:22:51;15.00;90.90
2226;DHT22;1119;48.288;8.726;2023-03-14T07:25:49;13.80;91.10
2226;DHT22;1119;48.288;8.726;2023-03-14T07:28:41;12.50;92.70
2226;DHT22;1119;48.288;8.726;2023-03-14T07:31:34;11.60;94.40
2226;DHT22;1119;48.288;8.726;2023-03-14T07:34:23;12.10;95.10
2226;DHT22;1119;48.288;8.726;2023-03-14T07:37:11;12.00;94.40
2226;DHT22;1119;48.288;8.726;2023-03-14T07:39:58;12.40;94.60
2226;DHT22;1119;48.288;8.726;2023-03-14T07:42:49;13.70;92.60
2226;DHT22;1119;48.288;8.726;2023-03-14T07:45:46;14.70;90.80
2226;DHT22;1119;48.288;8.726;2023-03-14T07:48:35;16.10;86.60
2226;DHT22;1119;48.288;8.726;2023-03-14T07:51:23;16.60;80.80
2226;DHT22;1119;48.288;8.726;2023-03-14T07:54:10;16.20;79.50
2226;DHT22;1119;48.288;8.726;2023-03-14T07:56:58;16.00;79.80
2226;DHT22;1119;48.288;8.726;2023-03-14T07:59:46;15.90;79.90
2226;DHT22;1119;48.288;8.726;2023-03-14T08:02:34;16.40;79.50
2226;DHT22;1119;48.288;8.726;2023-03-14T08:05:23;16.90;76.30
2226;DHT22;1119;48.288;8.726;2023-03-14T08:08:11;16.70;75.40
2226;DHT22;1119;48.288;8.726;2023-03-14T08:11:02;15.90;76.10
2226;DHT22;1119;48.288;8.726;2023-03-14T08:13:50;14.70;78.90
2226;DHT22;1119;48.288;8.726;2023-03-14T08:16:38;13.70;80.10
2226;DHT22;1119;48.288;8.726;2023-03-14T08:19:26;13.00;79.60
2226;DHT22;1119;48.288;8.726;2023-03-14T08:22:15;12.70;79.90
2226;DHT22;1119;48.288;8.726;2023-03-14T08:25:03;12.40;80.40
2226;DHT22;1119;48.288;8.726;2023-03-14T08:27:51;12.20;81.40
2226;DHT22;1119;48.288;8.726;2023-03-14T08:30:39;12.10;82.20
2226;DHT22;1119;48.288;8.726;2023-03-14T08:33:30;11.90;83.40
2226;DHT22;1119;48.288;8.726;2023-03-14T08:36:18;11.80;85.10
2226;DHT22;1119;48.288;8.726;2023-03-14T08:39:07;11.60;85.60
2226;DHT22;1119;48.288;8.726;2023-03-14T08:41:55;11.40;86.90
2226;DHT22;1119;48.288;8.726;2023-03-14T08:44:43;11.30;88.10
2226;DHT22;1119;48.288;8.726;2023-03-14T08:47:30;11.10;89.00
2226;DHT22;1119;48.288;8.726;2023-03-14T08:50:18;10.90;90.20
2226;DHT22;1119;48.288;8.726;2023-03-14T08:53:06;10.70;91.00
2226;DHT22;1119;48.288;8.726;2023-03-14T08:55:55;10.60;91.60
2226;DHT22;1119;48.288;8.726;2023-03-14T08:58:43;10.40;92.00
2226;DHT22;1119;48.288;8.726;2023-03-14T09:01:31;10.30;92.70
2226;DHT22;1119;48.288;8.726;2023-03-14T09:04:19;10.30;93.00
2226;DHT22;1119;48.288;8.726;2023-03-14T09:07:07;10.30;93.20
2226;DHT22;1119;48.288;8.726;2023-03-14T09:09:55;10.30;93.70
2226;DHT22;1119;48.288;8.726;2023-03-14T09:12:44;10.30;93.80
2226;DHT22;1119;48.288;8.726;2023-03-14T09:15:32;10.30;94.30
2226;DHT22;1119;48.288;8.726;2023-03-14T09:18:19;10.30;94.20
2226;DHT22;1119;48.288;8.726;2023-03-14T09:21:07;10.30;94.30
2226;DHT22;1119;48.288;8.726;2023-03-14T09:23:55;10.30;95.10
2226;DHT22;1119;48.288;8.726;2023-03-14T09:26:42;10.30;95.30
2226;DHT22;1119;48.288;8.726;2023-03-14T09:29:31;10.20;95.90
2226;DHT22;1119;48.288;8.726;2023-03-14T09:32:19;10.20;96.00
2226;DHT22;1119;48.288;8.726;2023-03-14T09:35:07;10.30;95.70
2226;DHT22;1119;48.288;8.726;2023-03-14T09:37:55;10.20;95.00
2226;DHT22;1119;48.288;8.726;2023-03-14T09:40:43;10.30;95.00
2226;DHT22;1119;48.288;8.726;2023-03-14T09:43:33;10.40;95.00
2226;DHT22;1119;48.288;8.726;2023-03-14T09:46:23;10.30;94.50
2226;DHT22;1119;48.288;8.726;2023-03-14T09:49:14;10.30;94.80
2226;DHT22;1119;48.288;8.726;2023-03-14T09:52:13;10.30;95.30
2226;DHT22;1119;48.288;8.726;2023-03-14T09:55:05;10.50;95.40
2226;DHT22;1119;48.288;8.726;2023-03-14T09:57:57;10.70;95.40
2226;DHT22;1119;48.288;8.726;2023-03-14T10:00:47;10.70;94.90
2226;DHT22;1119;48.288;8.726;2023-03-14T10:03:38;10.90;94.70
2226;DHT22;1119;48.288;8.726;2023-03-14T10:06:27;11.00;94.20
2226;DHT22;1119;48.288;8.726;2023-03-14T10:09:19;11.10;94.30
2226;DHT22;1119;48.288;8.726;2023-03-14T10:12:11;11.20;94.20
2226;DHT22;1119;48.288;8.726;2023-03-14T10:15:03;11.20;94.40
2226;DHT22;1119;48.288;8.726;2023-03-14T10:17:52;11.10;94.40
2226;DHT22;1119;48.288;8.726;2023-03-14T10:20:42;11.20;94.30
2226;DHT22;1119;48.288;8.726;2023-03-14T10:23:32;11.20;94.40
2226;DHT22;1119;48.288;8.726;2023-03-14T10:26:24;11.20;94.20
2226;DHT22;1119;48.288;8.726;2023-03-14T10:29:15;11.20;93.80
2226;DHT22;1119;48.288;8.726;2023-03-14T10:32:05;11.20;94.80
2226;DHT22;1119;48.288;8.726;2023-03-14T10:35:14;11.10;94.70
2226;DHT22;1119;48.288;8.726;2023-03-14T10:38:13;11.10;95.70
2226;DHT22;1119;48.288;8.726;2023-03-14T10:41:12;10.90;96.90
2226;DHT22;1119;48.288;8.726;2023-03-14T10:44:12;10.80;97.80
2226;DHT22;1119;48.288;8.726;2023-03-14T10:47:01;10.80;99.40
2226;DHT22;1119;48.288;8.726;2023-03-14T10:49:50;10.60;99.50
2226;DHT22;1119;48.288;8.726;2023-03-14T10:52:47;10.40;99.90
2226;DHT22;1119;48.288;8.726;2023-03-14T10:55:42;10.20;99.90
2226;DHT22;1119;48.288;8.726;2023-03-14T10:58:36;10.20;99.90
2226;DHT22;1119;48.288;8.726;2023-03-14T11:01:38;10.10;99.90
2226;DHT22;1119;48.288;8.726;2023-03-14T11:04:41;10.10;99.90
2226;DHT22;1119;48.288;8.726;2023-03-14T11:07:38;10.00;99.90
2226;DHT22;1119;48.288;8.726;2023-03-14T11:10:31;9.90;99.90
2226;DHT22;1119;48.288;8.726;2023-03-14T11:13:24;9.80;99.90
2226;DHT22;1119;48.288;8.726;2023-03-14T11:16:21;9.70;99.90
2226;DHT22;1119;48.288;8.726;2023-03-14T11:19:24;9.70;99.90
2226;DHT22;1119;48.288;8.726;2023-03-14T11:22:31;9.70;99.90
2226;DHT22;1119;48.288;8.726;2023-03-14T11:25:26;9.60;99.90
2226;DHT22;1119;48.288;8.726;2023-03-14T11:28:20;9.50;99.90
2226;DHT22;1119;48.288;8.726;2023-03-14T11:31:18;9.40;99.90
2226;DHT22;1119;48.288;8.726;2023-03-14T11:34:15;9.30;99.90
2226;DHT22;1119;48.288;8.726;2023-03-14T11:37:06;9.30;99.90
2226;DHT22;1119;48.288;8.726;2023-03-14T11:40:00;9.30;99.90
2226;DHT22;1119;48.288;8.726;2023-03-14T11:42:59;9.30;99.90
2226;DHT22;1119;48.288;8.726;2023-03-14T11:45:50;9.30;99.90
2226;DHT22;1119;48.288;8.726;2023-03-14T11:48:42;9.20;99.90
2226;DHT22;1119;48.288;8.726;2023-03-14T11:51:34;9.10;99.90
2226;DHT22;1119;48.288;8.726;2023-03-14T11:54:30;9.10;99.90
2226;DHT22;1119;48.288;8.726;2023-03-14T11:57:22;9.10;99.90
2226;DHT22;1119;48.288;8.726;2023-03-14T12:00:16;9.00;99.90
2226;DHT22;1119;48.288;8.726;2023-03-14T12:03:11;9.00;99.90
2226;DHT22;1119;48.288;8.726;2023-03-14T12:06:12;9.10;99.90
2226;DHT22;1119;48.288;8.726;2023-03-14T12:09:02;9.00;99.90
2226;DHT22;1119;48.288;8.726;2023-03-14T12:11:52;9.10;99.90
2226;DHT22;1119;48.288;8.726;2023-03-14T12:14:45;9.20;99.90
2226;DHT22;1119;48.288;8.726;2023-03-14T12:17:36;9.20;99.90
2226;DHT22;1119;48.288;8.726;2023-03-14T12:20:26;9.20;99.90
2226;DHT22;1119;48.288;8.726;2023-03-14T12:23:14;9.10;99.90
2226;DHT22;1119;48.288;8.726;2023-03-14T12:26:15;8.70;99.90
2226;DHT22;1119;48.288;8.726;2023-03-14T12:29:14;8.40;99.90
2226;DHT22;1119;48.288;8.726;2023-03-14T12:32:12;8.20;99.90
2226;DHT22;1119;48.288;8.726;2023-03-14T12:35:36;8.00;99.90
2226;DHT22;1119;48.288;8.726;2023-03-14T12:38:32;7.80;99.90
2226;DHT22;1119;48.288;8.726;2023-03-14T12:41:40;7.70;99.90
2226;DHT22;1119;48.288;8.726;2023-03-14T12:44:41;7.60;99.90
2226;DHT22;1119;48.288;8.726;2023-03-14T12:47:49;7.70;99.90
2226;DHT22;1119;48.288;8.726;2023-03-14T12:50:43;7.70;99.90
2226;DHT22;1119;48.288;8.726;2023-03-14T12:53:52;7.70;99.90
2226;DHT22;1119;48.288;8.726;2023-03-14T12:57:06;7.70;99.90
2226;DHT22;1119;48.288;8.726;2023-03-14T13:00:17;7.60;99.90
2226;DHT22;1119;48.288;8.726;2023-03-14T13:03:17;7.60;99.90
2226;DHT22;1119;48.288;8.726;2023-03-14T13:06:10;7.60;99.90
2226;DHT22;1119;48.288;8.726;2023-03-14T13:09:35;7.80;99.90
2226;DHT22;1119;48.288;8.726;2023-03-14T13:12:44;7.90;99.90
2226;DHT22;1119;48.288;8.726;2023-03-14T13:15:38;8.00;99.90
2226;DHT22;1119;48.288;8.726;2023-03-14T13:18:30;7.90;99.90
2226;DHT22;1119;48.288;8.726;2023-03-14T13:21:24;7.80;99.90
2226;DHT22;1119;48.288;8.726;2023-03-14T13:24:22;7.70;99.90
2226;DHT22;1119;48.288;8.726;2023-03-14T13:27:17;7.70;99.90
2226;DHT22;1119;48.288;8.726;2023-03-14T13:30:20;7.70;99.90
2226;DHT22;1119;48.288;8.726;2023-03-14T13:33:14;7.70;99.90
2226;DHT22;1119;48.288;8.726;2023-03-14T13:36:04;7.60;99.90
2226;DHT22;1119;48.288;8.726;2023-03-14T13:38:57;7.70;99.90
2226;DHT22;1119;48.288;8.726;2023-03-14T13:41:46;7.70;99.90
2226;DHT22;1119;48.288;8.726;2023-03-14T13:44:36;7.50;99.40
2226;DHT22;1119;48.288;8.726;2023-03-14T13:47:27;7.40;99.20
2226;DHT22;1119;48.288;8.726;2023-03-14T13:50:17;7.30;99.70
2226;DHT22;1119;48.288;8.726;2023-03-14T13:53:09;7.30;99.30
2226;DHT22;1119;48.288;8.726;2023-03-14T13:56:03;7.40;99.30
2226;DHT22;1119;48.288;8.726;2023-03-14T13:58:50;7.50;98.90
2226;DHT22;1119;48.288;8.726;2023-03-14T14:01:38;7.50;98.90
2226;DHT22;1119;48.288;8.726;2023-03-14T14:04:36;7.60;98.70
2226;DHT22;1119;48.288;8.726;2023-03-14T14:07:24;7.70;98.30
2226;DHT22;1119;48.288;8.726;2023-03-14T14:10:13;7.70;96.80
2226;DHT22;1119;48.288;8.726;2023-03-14T14:13:03;7.60;95.60
2226;DHT22;1119;48.288;8.726;2023-03-14T14:15:54;7.60;96.20
2226;DHT22;1119;48.288;8.726;2023-03-14T14:18:42;7.50;95.50
2226;DHT22;1119;48.288;8.726;2023-03-14T14:21:30;7.50;96.10
2226;DHT22;1119;48.288;8.726;2023-03-14T14:24:20;7.40;95.40
2226;DHT22;1119;48.288;8.726;2023-03-14T14:27:14;7.30;95.80
2226;DHT22;1119;48.288;8.726;2023-03-14T14:30:06;7.30;94.90
2226;DHT22;1119;48.288;8.726;2023-03-14T14:33:18;7.20;94.90
2226;DHT22;1119;48.288;8.726;2023-03-14T14:36:16;7.20;94.80
2226;DHT22;1119;48.288;8.726;2023-03-14T14:39:11;7.20;93.50
2226;DHT22;1119;48.288;8.726;2023-03-14T14:42:02;7.30;93.80
2226;DHT22;1119;48.288;8.726;2023-03-14T14:44:50;7.50;93.30
2226;DHT22;1119;48.288;8.726;2023-03-14T14:47:49;7.80;92.90
2226;DHT22;1119;48.288;8.726;2023-03-14T14:50:45;7.90;92.10
2226;DHT22;1119;48.288;8.726;2023-03-14T14:53:38;8.10;92.10
2226;DHT22;1119;48.288;8.726;2023-03-14T14:56:27;8.30;90.70
2226;DHT22;1119;48.288;8.726;2023-03-14T14:59:22;8.30;90.40
2226;DHT22;1119;48.288;8.726;2023-03-14T15:02:30;8.50;90.10
2226;DHT22;1119;48.288;8.726;2023-03-14T15:05:24;8.40;88.70
2226;DHT22;1119;48.288;8.726;2023-03-14T15:08:13;8.30;87.70
2226;DHT22;1119;48.288;8.726;2023-03-14T15:11:00;8.20;87.90
2226;DHT22;1119;48.288;8.726;2023-03-14T15:13:48;8.00;88.20
2226;DHT22;1119;48.288;8.726;2023-03-14T15:16:36;7.90;86.60
2226;DHT22;1119;48.288;8.726;2023-03-14T15:19:25;7.70;87.10
2226;DHT22;1119;48.288;8.726;2023-03-14T15:22:16;7.60;87.60
2226;DHT22;1119;48.288;8.726;2023-03-14T15:25:04;7.60;87.80
2226;DHT22;1119;48.288;8.726;2023-03-14T15:27:52;7.60;88.90
2226;DHT22;1119;48.288;8.726;2023-03-14T15:30:39;7.50;87.80
2226;DHT22;1119;48.288;8.726;2023-03-14T15:33:28;7.50;87.90
2226;DHT22;1119;48.288;8.726;2023-03-14T15:36:22;7.50;87.50
2226;DHT22;1119;48.288;8.726;2023-03-14T15:39:12;7.40;86.80
2226;DHT22;1119;48.288;8.726;2023-03-14T15:41:59;7.40;87.70
2226;DHT22;1119;48.288;8.726;2023-03-14T15:44:47;7.30;87.00
2226;DHT22;1119;48.288;8.726;2023-03-14T15:47:34;7.40;87.20
2226;DHT22;1119;48.288;8.726;2023-03-14T15:50:22;7.40;86.90
2226;DHT22;1119;48.288;8.726;2023-03-14T15:53:12;7.40;86.80
2226;DHT22;1119;48.288;8.726;2023-03-14T15:56:01;7.30;84.80
2226;DHT22;1119;48.288;8.726;2023-03-14T15:58:48;7.40;85.60
2226;DHT22;1119;48.288;8.726;2023-03-14T16:01:36;7.40;85.20
2226;DHT22;1119;48.288;8.726;2023-03-14T16:04:24;7.40;86.20
2226;DHT22;1119;48.288;8.726;2023-03-14T16:07:12;7.40;87.40
2226;DHT22;1119;48.288;8.726;2023-03-14T16:09:59;7.40;86.40
2226;DHT22;1119;48.288;8.726;2023-03-14T16:12:48;7.40;85.90
2226;DHT22;1119;48.288;8.726;2023-03-14T16:15:36;7.50;87.00
2226;DHT22;1119;48.288;8.726;2023-03-14T16:18:24;7.50;87.70
2226;DHT22;1119;48.288;8.726;2023-03-14T16:21:15;7.60;87.70
2226;DHT22;1119;48.288;8.726;2023-03-14T16:24:04;7.50;86.00
2226;DHT22;1119;48.288;8.726;2023-03-14T16:26:53;7.50;86.60
2226;DHT22;1119;48.288;8.726;2023-03-14T16:29:42;7.40;85.40
2226;DHT22;1119;48.288;8.726;2023-03-14T16:32:29;7.50;86.60
2226;DHT22;1119;48.288;8.726;2023-03-14T16:35:17;7.50;86.80
2226;DHT22;1119;48.288;8.726;2023-03-14T16:38:05;7.50;86.90
2226;DHT22;1119;48.288;8.726;2023-03-14T16:40:57;7.50;87.50
2226;DHT22;1119;48.288;8.726;2023-03-14T16:43:46;7.50;87.20
2226;DHT22;1119;48.288;8.726;2023-03-14T16:46:38;7.50;87.40
2226;DHT22;1119;48.288;8.726;2023-03-14T16:49:26;7.50;86.90
2226;DHT22;1119;48.288;8.726;2023-03-14T16:52:14;7.40;87.30
2226;DHT22;1119;48.288;8.726;2023-03-14T16:55:01;7.50;87.80
2226;DHT22;1119;48.288;8.726;2023-03-14T16:57:50;7.40;87.60
2226;DHT22;1119;48.288;8.726;2023-03-14T17:00:37;7.40;88.10
2226;DHT22;1119;48.288;8.726;2023-03-14T17:03:26;7.40;88.80
2226;DHT22;1119;48.288;8.726;2023-03-14T17:06:15;7.40;89.60
2226;DHT22;1119;48.288;8.726;2023-03-14T17:09:04;7.30;91.20
2226;DHT22;1119;48.288;8.726;2023-03-14T17:11:52;6.90;94.00
2226;DHT22;1119;48.288;8.726;2023-03-14T17:14:40;6.60;95.90
2226;DHT22;1119;48.288;8.726;2023-03-14T17:17:28;6.40;98.60
2226;DHT22;1119;48.288;8.726;2023-03-14T17:20:18;6.10;99.90
2226;DHT22;1119;48.288;8.726;2023-03-14T17:23:05;5.90;99.90
2226;DHT22;1119;48.288;8.726;2023-03-14T17:25:54;5.60;99.90
2226;DHT22;1119;48.288;8.726;2023-03-14T17:28:42;5.40;99.90
2226;DHT22;1119;48.288;8.726;2023-03-14T17:31:29;5.20;99.90
2226;DHT22;1119;48.288;8.726;2023-03-14T17:34:17;5.00;99.90
2226;DHT22;1119;48.288;8.726;2023-03-14T17:37:06;4.90;99.90
2226;DHT22;1119;48.288;8.726;2023-03-14T17:39:54;4.80;99.90
2226;DHT22;1119;48.288;8.726;2023-03-14T17:42:41;4.70;99.90
2226;DHT22;1119;48.288;8.726;2023-03-14T17:45:29;4.70;99.90
2226;DHT22;1119;48.288;8.726;2023-03-14T17:48:16;4.80;99.90
2226;DHT22;1119;48.288;8.726;2023-03-14T17:51:04;4.80;99.90
2226;DHT22;1119;48.288;8.726;2023-03-14T17:53:53;4.70;99.90
2226;DHT22;1119;48.288;8.726;2023-03-14T17:56:41;4.70;99.90
2226;DHT22;1119;48.288;8.726;2023-03-14T17:59:28;4.70;99.90
2226;DHT22;1119;48.288;8.726;2023-03-14T18:02:16;4.60;99.90
2226;DHT22;1119;48.288;8.726;2023-03-14T18:05:05;4.70;99.90
2226;DHT22;1119;48.288;8.726;2023-03-14T18:07:52;4.70;99.90
2226;DHT22;1119;48.288;8.726;2023-03-14T18:10:41;4.80;99.90
2226;DHT22;1119;48.288;8.726;2023-03-14T18:13:29;4.80;99.90
2226;DHT22;1119;48.288;8.726;2023-03-14T18:16:17;4.80;99.90
2226;DHT22;1119;48.288;8.726;2023-03-14T18:19:05;4.80;99.90
2226;DHT22;1119;48.288;8.726;2023-03-14T18:21:53;4.90;99.90
2226;DHT22;1119;48.288;8.726;2023-03-14T18:24:40;4.90;99.90
2226;DHT22;1119;48.288;8.726;2023-03-14T18:27:29;4.80;99.90
2226;DHT22;1119;48.288;8.726;2023-03-14T18:30:17;4.90;99.90
2226;DHT22;1119;48.288;8.726;2023-03-14T18:33:06;4.90;99.90
2226;DHT22;1119;48.288;8.726;2023-03-14T18:35:53;5.00;99.90
2226;DHT22;1119;48.288;8.726;2023-03-14T18:38:41;4.90;99.90
2226;DHT22;1119;48.288;8.726;2023-03-14T18:41:33;5.00;99.90
2226;DHT22;1119;48.288;8.726;2023-03-14T18:44:23;5.00;99.90
2226;DHT22;1119;48.288;8.726;2023-03-14T18:47:10;5.10;99.90
2226;DHT22;1119;48.288;8.726;2023-03-14T18:49:58;5.10;99.90
2226;DHT22;1119;48.288;8.726;2023-03-14T18:52:45;5.00;99.90
2226;DHT22;1119;48.288;8.726;2023-03-14T18:55:33;5.00;99.90
2226;DHT22;1119;48.288;8.726;2023-03-14T18:58:21;5.00;99.90